sensor_id;sensor_type;location;lat;lon;timestamp;P1;P2;P0
37290;PMS5003;23175;-33.706;151.094;2022-08-19T00:00:26;1;1;
37290;PMS5003;23175;-33.706;151.094;2022-08-19T00:02:56;1;1;
37290;PMS5003;23175;-33.706;151.094;2022-08-19T00:05:26;3;0;
37290;PMS5003;23175;-33.706;151.094;2022-08-19T00:07:57;0;0;
37290;PMS5003;23175;-33.706;151.094;2022-08-19T00:10:27;2;0;
37290;PMS5003;23175;-33.706;151.094;2022-08-19T00:12:57;5;3;
37290;PMS5003;23175;-33.706;151.094;2022-08-19T00:15:28;3;3;
37290;PMS5003;23175;-33.706;151.094;2022-08-19T00:17:58;2;2;
37290;PMS5003;23175;-33.706;151.094;2022-08-19T00:20:28;5;4;
37290;PMS5003;23175;-33.706;151.094;2022-08-19T00:22:58;2;2;
37290;PMS5003;23175;-33.706;151.094;2022-08-19T00:25:29;5;2;
37290;PMS5003;23175;-33.706;151.094;2022-08-19T00:27:59;1;1;
37290;PMS5003;23175;-33.706;151.094;2022-08-19T00:30:29;5;3;
37290;PMS5003;23175;-33.706;151.094;2022-08-19T00:33:00;3;1;
37290;PMS5003;23175;-33.706;151.094;2022-08-19T00:35:30;3;3;
37290;PMS5003;23175;-33.706;151.094;2022-08-19T00:38:00;3;3;
37290;PMS5003;23175;-33.706;151.094;2022-08-19T00:40:31;3;3;
37290;PMS5003;23175;-33.706;151.094;2022-08-19T00:43:01;4;4;
37290;PMS5003;23175;-33.706;151.094;2022-08-19T00:45:38;6;4;
37290;PMS5003;23175;-33.706;151.094;2022-08-19T00:48:10;7;6;
37290;PMS5003;23175;-33.706;151.094;2022-08-19T00:50:40;7;6;
37290;PMS5003;23175;-33.706;151.094;2022-08-19T00:53:12;6;6;
37290;PMS5003;23175;-33.706;151.094;2022-08-19T00:55:47;10;6;
37290;PMS5003;23175;-33.706;151.094;2022-08-19T00:58:22;7;5;
37290;PMS5003;23175;-33.706;151.094;2022-08-19T01:00:56;7;7;
37290;PMS5003;23175;-33.706;151.094;2022-08-19T01:03:27;11;7;
37290;PMS5003;23175;-33.706;151.094;2022-08-19T01:05:57;9;5;
37290;PMS5003;23175;-33.706;151.094;2022-08-19T01:08:27;6;3;
37290;PMS5003;23175;-33.706;151.094;2022-08-19T01:10:58;3;3;
37290;PMS5003;23175;-33.706;151.094;2022-08-19T01:13:30;6;4;
37290;PMS5003;23175;-33.706;151.094;2022-08-19T01:16:03;2;1;
37290;PMS5003;23175;-33.706;151.094;2022-08-19T01:18:36;2;2;
37290;PMS5003;23175;-33.706;151.094;2022-08-19T01:21:10;3;2;
37290;PMS5003;23175;-33.706;151.094;2022-08-19T01:23:46;1;1;
37290;PMS5003;23175;-33.706;151.094;2022-08-19T01:26:18;1;1;
37290;PMS5003;23175;-33.706;151.094;2022-08-19T01:28:51;1;1;
37290;PMS5003;23175;-33.706;151.094;2022-08-19T01:31:23;2;1;
37290;PMS5003;23175;-33.706;151.094;2022-08-19T01:33:56;0;0;
37290;PMS5003;23175;-33.706;151.094;2022-08-19T01:36:29;0;0;
37290;PMS5003;23175;-33.706;151.094;2022-08-19T01:39:03;1;1;
37290;PMS5003;23175;-33.706;151.094;2022-08-19T01:41:36;0;0;
37290;PMS5003;23175;-33.706;151.094;2022-08-19T01:44:07;0;0;
37290;PMS5003;23175;-33.706;151.094;2022-08-19T01:46:39;1;1;
37290;PMS5003;23175;-33.706;151.094;2022-08-19T01:49:09;1;1;
37290;PMS5003;23175;-33.706;151.094;2022-08-19T01:51:40;0;0;
37290;PMS5003;23175;-33.706;151.094;2022-08-19T01:54:11;0;0;
37290;PMS5003;23175;-33.706;151.094;2022-08-19T01:56:42;0;0;
37290;PMS5003;23175;-33.706;151.094;2022-08-19T01:59:13;1;1;
37290;PMS5003;23175;-33.706;151.094;2022-08-19T02:01:46;0;0;
37290;PMS5003;23175;-33.706;151.094;2022-08-19T02:04:16;0;0;
37290;PMS5003;23175;-33.706;151.094;2022-08-19T02:06:46;2;0;
37290;PMS5003;23175;-33.706;151.094;2022-08-19T02:09:17;0;0;
37290;PMS5003;23175;-33.706;151.094;2022-08-19T02:11:47;1;0;
37290;PMS5003;23175;-33.706;151.094;2022-08-19T02:14:17;1;1;
37290;PMS5003;23175;-33.706;151.094;2022-08-19T02:16:47;0;0;
37290;PMS5003;23175;-33.706;151.094;2022-08-19T02:19:17;3;1;
37290;PMS5003;23175;-33.706;151.094;2022-08-19T02:21:48;0;0;
37290;PMS5003;23175;-33.706;151.094;2022-08-19T02:24:18;0;0;
37290;PMS5003;23175;-33.706;151.094;2022-08-19T02:26:48;0;0;
37290;PMS5003;23175;-33.706;151.094;2022-08-19T02:29:19;0;0;
37290;PMS5003;23175;-33.706;151.094;2022-08-19T02:31:49;0;0;
37290;PMS5003;23175;-33.706;151.094;2022-08-19T02:34:19;0;0;
37290;PMS5003;23175;-33.706;151.094;2022-08-19T02:36:49;0;0;
37290;PMS5003;23175;-33.706;151.094;2022-08-19T02:39:19;0;0;
37290;PMS5003;23175;-33.706;151.094;2022-08-19T02:41:50;0;0;
37290;PMS5003;23175;-33.706;151.094;2022-08-19T02:44:20;0;0;
37290;PMS5003;23175;-33.706;151.094;2022-08-19T02:46:50;2;0;
37290;PMS5003;23175;-33.706;151.094;2022-08-19T02:49:20;0;0;
37290;PMS5003;23175;-33.706;151.094;2022-08-19T02:51:50;0;0;
37290;PMS5003;23175;-33.706;151.094;2022-08-19T02:54:21;1;1;
37290;PMS5003;23175;-33.706;151.094;2022-08-19T02:56:51;3;0;
37290;PMS5003;23175;-33.706;151.094;2022-08-19T02:59:21;1;0;
37290;PMS5003;23175;-33.706;151.094;2022-08-19T03:01:51;0;0;
37290;PMS5003;23175;-33.706;151.094;2022-08-19T03:04:21;0;0;
37290;PMS5003;23175;-33.706;151.094;2022-08-19T03:06:52;0;0;
37290;PMS5003;23175;-33.706;151.094;2022-08-19T03:09:23;1;0;
37290;PMS5003;23175;-33.706;151.094;2022-08-19T03:11:53;0;0;
37290;PMS5003;23175;-33.706;151.094;2022-08-19T03:14:23;1;1;
37290;PMS5003;23175;-33.706;151.094;2022-08-19T03:16:53;1;0;
37290;PMS5003;23175;-33.706;151.094;2022-08-19T03:19:24;2;0;
37290;PMS5003;23175;-33.706;151.094;2022-08-19T03:21:54;0;0;
37290;PMS5003;23175;-33.706;151.094;2022-08-19T03:24:24;0;0;
37290;PMS5003;23175;-33.706;151.094;2022-08-19T03:26:54;0;0;
37290;PMS5003;23175;-33.706;151.094;2022-08-19T03:29:25;0;0;
37290;PMS5003;23175;-33.706;151.094;2022-08-19T03:31:57;0;0;
37290;PMS5003;23175;-33.706;151.094;2022-08-19T03:34:29;0;0;
37290;PMS5003;23175;-33.706;151.094;2022-08-19T03:37:03;2;0;
37290;PMS5003;23175;-33.706;151.094;2022-08-19T03:39:36;0;0;
37290;PMS5003;23175;-33.706;151.094;2022-08-19T03:42:08;0;0;
37290;PMS5003;23175;-33.706;151.094;2022-08-19T03:44:39;0;0;
37290;PMS5003;23175;-33.706;151.094;2022-08-19T03:47:09;3;1;
37290;PMS5003;23175;-33.706;151.094;2022-08-19T03:49:39;0;0;
37290;PMS5003;23175;-33.706;151.094;2022-08-19T03:52:09;0;0;
37290;PMS5003;23175;-33.706;151.094;2022-08-19T03:54:40;0;0;
37290;PMS5003;23175;-33.706;151.094;2022-08-19T03:57:10;0;0;
37290;PMS5003;23175;-33.706;151.094;2022-08-19T03:59:40;2;0;
37290;PMS5003;23175;-33.706;151.094;2022-08-19T04:02:11;0;0;
37290;PMS5003;23175;-33.706;151.094;2022-08-19T04:04:42;0;0;
37290;PMS5003;23175;-33.706;151.094;2022-08-19T04:07:13;0;0;
37290;PMS5003;23175;-33.706;151.094;2022-08-19T04:09:43;0;0;
37290;PMS5003;23175;-33.706;151.094;2022-08-19T04:12:13;1;0;
37290;PMS5003;23175;-33.706;151.094;2022-08-19T04:14:44;0;0;
37290;PMS5003;23175;-33.706;151.094;2022-08-19T04:17:14;1;0;
37290;PMS5003;23175;-33.706;151.094;2022-08-19T04:19:44;0;0;
37290;PMS5003;23175;-33.706;151.094;2022-08-19T04:22:14;1;0;
37290;PMS5003;23175;-33.706;151.094;2022-08-19T04:24:45;0;0;
37290;PMS5003;23175;-33.706;151.094;2022-08-19T04:27:15;0;0;
37290;PMS5003;23175;-33.706;151.094;2022-08-19T04:29:46;0;0;
37290;PMS5003;23175;-33.706;151.094;2022-08-19T04:32:16;0;0;
37290;PMS5003;23175;-33.706;151.094;2022-08-19T04:34:46;0;0;
37290;PMS5003;23175;-33.706;151.094;2022-08-19T04:37:16;0;0;
37290;PMS5003;23175;-33.706;151.094;2022-08-19T04:39:46;0;0;
37290;PMS5003;23175;-33.706;151.094;2022-08-19T04:42:18;0;0;
37290;PMS5003;23175;-33.706;151.094;2022-08-19T04:44:48;0;0;
37290;PMS5003;23175;-33.706;151.094;2022-08-19T04:47:18;0;0;
37290;PMS5003;23175;-33.706;151.094;2022-08-19T04:49:48;0;0;
37290;PMS5003;23175;-33.706;151.094;2022-08-19T04:52:18;0;0;
37290;PMS5003;23175;-33.706;151.094;2022-08-19T04:54:48;0;0;
37290;PMS5003;23175;-33.706;151.094;2022-08-19T04:57:19;2;2;
37290;PMS5003;23175;-33.706;151.094;2022-08-19T04:59:53;0;0;
37290;PMS5003;23175;-33.706;151.094;2022-08-19T05:02:24;1;1;
37290;PMS5003;23175;-33.706;151.094;2022-08-19T05:04:57;1;1;
37290;PMS5003;23175;-33.706;151.094;2022-08-19T05:07:28;2;1;
37290;PMS5003;23175;-33.706;151.094;2022-08-19T05:09:58;1;0;
37290;PMS5003;23175;-33.706;151.094;2022-08-19T05:12:28;1;1;
37290;PMS5003;23175;-33.706;151.094;2022-08-19T05:14:59;1;0;
37290;PMS5003;23175;-33.706;151.094;2022-08-19T05:17:31;0;0;
37290;PMS5003;23175;-33.706;151.094;2022-08-19T05:20:01;0;0;
37290;PMS5003;23175;-33.706;151.094;2022-08-19T05:22:32;0;0;
37290;PMS5003;23175;-33.706;151.094;2022-08-19T05:25:04;0;0;
37290;PMS5003;23175;-33.706;151.094;2022-08-19T05:27:36;0;0;
37290;PMS5003;23175;-33.706;151.094;2022-08-19T05:30:07;2;2;
37290;PMS5003;23175;-33.706;151.094;2022-08-19T05:32:38;0;0;
37290;PMS5003;23175;-33.706;151.094;2022-08-19T05:35:09;1;1;
37290;PMS5003;23175;-33.706;151.094;2022-08-19T05:37:40;0;0;
37290;PMS5003;23175;-33.706;151.094;2022-08-19T05:40:10;1;1;
37290;PMS5003;23175;-33.706;151.094;2022-08-19T05:42:41;0;0;
37290;PMS5003;23175;-33.706;151.094;2022-08-19T05:45:11;0;0;
37290;PMS5003;23175;-33.706;151.094;2022-08-19T05:47:41;0;0;
37290;PMS5003;23175;-33.706;151.094;2022-08-19T05:50:11;0;0;
37290;PMS5003;23175;-33.706;151.094;2022-08-19T05:52:41;1;1;
37290;PMS5003;23175;-33.706;151.094;2022-08-19T05:55:11;1;0;
37290;PMS5003;23175;-33.706;151.094;2022-08-19T05:57:41;2;2;
37290;PMS5003;23175;-33.706;151.094;2022-08-19T06:00:12;2;1;
37290;PMS5003;23175;-33.706;151.094;2022-08-19T06:02:43;2;2;
37290;PMS5003;23175;-33.706;151.094;2022-08-19T06:05:13;1;1;
37290;PMS5003;23175;-33.706;151.094;2022-08-19T06:07:43;1;1;
37290;PMS5003;23175;-33.706;151.094;2022-08-19T06:10:14;1;1;
37290;PMS5003;23175;-33.706;151.094;2022-08-19T06:12:44;0;0;
37290;PMS5003;23175;-33.706;151.094;2022-08-19T06:15:15;1;1;
37290;PMS5003;23175;-33.706;151.094;2022-08-19T06:17:46;0;0;
37290;PMS5003;23175;-33.706;151.094;2022-08-19T06:20:16;0;0;
37290;PMS5003;23175;-33.706;151.094;2022-08-19T06:22:48;1;1;
37290;PMS5003;23175;-33.706;151.094;2022-08-19T06:25:18;0;0;
37290;PMS5003;23175;-33.706;151.094;2022-08-19T06:27:49;0;0;
37290;PMS5003;23175;-33.706;151.094;2022-08-19T06:30:19;0;0;
37290;PMS5003;23175;-33.706;151.094;2022-08-19T06:32:49;1;0;
37290;PMS5003;23175;-33.706;151.094;2022-08-19T06:35:20;0;0;
37290;PMS5003;23175;-33.706;151.094;2022-08-19T06:37:50;0;0;
37290;PMS5003;23175;-33.706;151.094;2022-08-19T06:40:21;0;0;
37290;PMS5003;23175;-33.706;151.094;2022-08-19T06:42:51;1;0;
37290;PMS5003;23175;-33.706;151.094;2022-08-19T06:45:21;0;0;
37290;PMS5003;23175;-33.706;151.094;2022-08-19T06:47:52;0;0;
37290;PMS5003;23175;-33.706;151.094;2022-08-19T06:51:18;0;0;
37290;PMS5003;23175;-33.706;151.094;2022-08-19T06:53:49;0;0;
37290;PMS5003;23175;-33.706;151.094;2022-08-19T06:56:23;0;0;
37290;PMS5003;23175;-33.706;151.094;2022-08-19T06:58:54;0;0;
37290;PMS5003;23175;-33.706;151.094;2022-08-19T07:01:25;0;0;
37290;PMS5003;23175;-33.706;151.094;2022-08-19T07:03:55;0;0;
37290;PMS5003;23175;-33.706;151.094;2022-08-19T07:06:25;0;0;
37290;PMS5003;23175;-33.706;151.094;2022-08-19T07:08:56;0;0;
37290;PMS5003;23175;-33.706;151.094;2022-08-19T07:11:27;0;0;
37290;PMS5003;23175;-33.706;151.094;2022-08-19T07:13:56;2;0;
37290;PMS5003;23175;-33.706;151.094;2022-08-19T07:16:27;1;1;
37290;PMS5003;23175;-33.706;151.094;2022-08-19T07:18:57;0;0;
37290;PMS5003;23175;-33.706;151.094;2022-08-19T07:21:28;0;0;
37290;PMS5003;23175;-33.706;151.094;2022-08-19T07:23:58;0;0;
37290;PMS5003;23175;-33.706;151.094;2022-08-19T07:26:30;0;0;
37290;PMS5003;23175;-33.706;151.094;2022-08-19T07:29:05;1;0;
37290;PMS5003;23175;-33.706;151.094;2022-08-19T07:31:37;1;0;
37290;PMS5003;23175;-33.706;151.094;2022-08-19T07:34:08;0;0;
37290;PMS5003;23175;-33.706;151.094;2022-08-19T07:36:40;0;0;
37290;PMS5003;23175;-33.706;151.094;2022-08-19T07:39:12;1;1;
37290;PMS5003;23175;-33.706;151.094;2022-08-19T07:41:44;1;1;
37290;PMS5003;23175;-33.706;151.094;2022-08-19T07:44:16;0;0;
37290;PMS5003;23175;-33.706;151.094;2022-08-19T07:46:48;0;0;
37290;PMS5003;23175;-33.706;151.094;2022-08-19T07:49:21;2;2;
37290;PMS5003;23175;-33.706;151.094;2022-08-19T07:51:52;0;0;
37290;PMS5003;23175;-33.706;151.094;2022-08-19T07:54:25;1;1;
37290;PMS5003;23175;-33.706;151.094;2022-08-19T07:56:57;3;3;
37290;PMS5003;23175;-33.706;151.094;2022-08-19T07:59:27;1;1;
37290;PMS5003;23175;-33.706;151.094;2022-08-19T08:01:58;2;2;
37290;PMS5003;23175;-33.706;151.094;2022-08-19T08:04:29;3;3;
37290;PMS5003;23175;-33.706;151.094;2022-08-19T08:07:00;2;2;
37290;PMS5003;23175;-33.706;151.094;2022-08-19T08:09:32;1;1;
37290;PMS5003;23175;-33.706;151.094;2022-08-19T08:12:08;2;2;
37290;PMS5003;23175;-33.706;151.094;2022-08-19T08:14:41;4;2;
37290;PMS5003;23175;-33.706;151.094;2022-08-19T08:17:14;2;2;
37290;PMS5003;23175;-33.706;151.094;2022-08-19T08:19:46;1;1;
37290;PMS5003;23175;-33.706;151.094;2022-08-19T08:22:17;2;2;
37290;PMS5003;23175;-33.706;151.094;2022-08-19T08:24:48;2;1;
37290;PMS5003;23175;-33.706;151.094;2022-08-19T08:27:19;3;2;
37290;PMS5003;23175;-33.706;151.094;2022-08-19T08:29:49;4;3;
37290;PMS5003;23175;-33.706;151.094;2022-08-19T08:32:19;3;3;
37290;PMS5003;23175;-33.706;151.094;2022-08-19T08:34:50;2;2;
37290;PMS5003;23175;-33.706;151.094;2022-08-19T08:37:20;1;1;
37290;PMS5003;23175;-33.706;151.094;2022-08-19T08:39:50;5;2;
37290;PMS5003;23175;-33.706;151.094;2022-08-19T08:42:22;3;3;
37290;PMS5003;23175;-33.706;151.094;2022-08-19T08:44:59;4;4;
37290;PMS5003;23175;-33.706;151.094;2022-08-19T08:47:31;5;3;
37290;PMS5003;23175;-33.706;151.094;2022-08-19T08:50:05;5;4;
37290;PMS5003;23175;-33.706;151.094;2022-08-19T08:52:41;7;6;
37290;PMS5003;23175;-33.706;151.094;2022-08-19T08:55:14;5;3;
37290;PMS5003;23175;-33.706;151.094;2022-08-19T08:57:48;5;5;
37290;PMS5003;23175;-33.706;151.094;2022-08-19T09:00:24;8;5;
37290;PMS5003;23175;-33.706;151.094;2022-08-19T09:02:58;9;8;
37290;PMS5003;23175;-33.706;151.094;2022-08-19T09:05:35;6;4;
37290;PMS5003;23175;-33.706;151.094;2022-08-19T09:08:17;6;6;
37290;PMS5003;23175;-33.706;151.094;2022-08-19T09:10:55;8;6;
37290;PMS5003;23175;-33.706;151.094;2022-08-19T09:13:27;11;7;
37290;PMS5003;23175;-33.706;151.094;2022-08-19T09:16:05;10;9;
37290;PMS5003;23175;-33.706;151.094;2022-08-19T09:18:40;7;7;
37290;PMS5003;23175;-33.706;151.094;2022-08-19T09:21:12;8;8;
37290;PMS5003;23175;-33.706;151.094;2022-08-19T09:23:42;13;12;
37290;PMS5003;23175;-33.706;151.094;2022-08-19T09:26:13;15;13;
37290;PMS5003;23175;-33.706;151.094;2022-08-19T09:28:45;19;19;
37290;PMS5003;23175;-33.706;151.094;2022-08-19T09:31:18;15;13;
37290;PMS5003;23175;-33.706;151.094;2022-08-19T09:33:51;13;11;
37290;PMS5003;23175;-33.706;151.094;2022-08-19T09:36:22;24;20;
37290;PMS5003;23175;-33.706;151.094;2022-08-19T09:38:54;16;15;
37290;PMS5003;23175;-33.706;151.094;2022-08-19T09:41:25;13;10;
37290;PMS5003;23175;-33.706;151.094;2022-08-19T09:43:55;30;25;
37290;PMS5003;23175;-33.706;151.094;2022-08-19T09:46:27;32;28;
37290;PMS5003;23175;-33.706;151.094;2022-08-19T09:48:58;40;34;
37290;PMS5003;23175;-33.706;151.094;2022-08-19T09:51:28;39;37;
37290;PMS5003;23175;-33.706;151.094;2022-08-19T09:54:00;30;24;
37290;PMS5003;23175;-33.706;151.094;2022-08-19T09:56:32;29;28;
37290;PMS5003;23175;-33.706;151.094;2022-08-19T09:59:02;19;18;
37290;PMS5003;23175;-33.706;151.094;2022-08-19T10:01:32;27;26;
37290;PMS5003;23175;-33.706;151.094;2022-08-19T10:04:02;19;18;
37290;PMS5003;23175;-33.706;151.094;2022-08-19T10:06:32;15;14;
37290;PMS5003;23175;-33.706;151.094;2022-08-19T10:09:04;13;12;
37290;PMS5003;23175;-33.706;151.094;2022-08-19T10:11:35;15;13;
37290;PMS5003;23175;-33.706;151.094;2022-08-19T10:14:07;14;13;
37290;PMS5003;23175;-33.706;151.094;2022-08-19T10:16:38;20;16;
37290;PMS5003;23175;-33.706;151.094;2022-08-19T10:19:08;18;18;
37290;PMS5003;23175;-33.706;151.094;2022-08-19T10:21:38;27;22;
37290;PMS5003;23175;-33.706;151.094;2022-08-19T10:24:08;23;22;
37290;PMS5003;23175;-33.706;151.094;2022-08-19T10:26:39;38;28;
37290;PMS5003;23175;-33.706;151.094;2022-08-19T10:29:10;26;23;
37290;PMS5003;23175;-33.706;151.094;2022-08-19T10:31:40;23;19;
37290;PMS5003;23175;-33.706;151.094;2022-08-19T10:34:10;23;20;
37290;PMS5003;23175;-33.706;151.094;2022-08-19T10:36:40;21;20;
37290;PMS5003;23175;-33.706;151.094;2022-08-19T10:39:10;22;19;
37290;PMS5003;23175;-33.706;151.094;2022-08-19T10:41:42;19;17;
37290;PMS5003;23175;-33.706;151.094;2022-08-19T10:44:12;22;21;
37290;PMS5003;23175;-33.706;151.094;2022-08-19T10:46:43;17;14;
37290;PMS5003;23175;-33.706;151.094;2022-08-19T10:49:13;19;14;
37290;PMS5003;23175;-33.706;151.094;2022-08-19T10:51:44;15;11;
37290;PMS5003;23175;-33.706;151.094;2022-08-19T10:54:14;18;16;
37290;PMS5003;23175;-33.706;151.094;2022-08-19T10:56:44;14;12;
37290;PMS5003;23175;-33.706;151.094;2022-08-19T10:59:15;13;12;
37290;PMS5003;23175;-33.706;151.094;2022-08-19T11:01:47;10;10;
37290;PMS5003;23175;-33.706;151.094;2022-08-19T11:04:19;16;13;
37290;PMS5003;23175;-33.706;151.094;2022-08-19T11:06:49;10;10;
37290;PMS5003;23175;-33.706;151.094;2022-08-19T11:09:21;13;11;
37290;PMS5003;23175;-33.706;151.094;2022-08-19T11:11:52;13;10;
37290;PMS5003;23175;-33.706;151.094;2022-08-19T11:14:23;11;10;
37290;PMS5003;23175;-33.706;151.094;2022-08-19T11:16:53;11;11;
37290;PMS5003;23175;-33.706;151.094;2022-08-19T11:19:24;12;11;
37290;PMS5003;23175;-33.706;151.094;2022-08-19T11:21:55;13;13;
37290;PMS5003;23175;-33.706;151.094;2022-08-19T11:24:25;14;11;
37290;PMS5003;23175;-33.706;151.094;2022-08-19T11:27:00;15;12;
37290;PMS5003;23175;-33.706;151.094;2022-08-19T11:29:31;15;12;
37290;PMS5003;23175;-33.706;151.094;2022-08-19T11:32:04;15;11;
37290;PMS5003;23175;-33.706;151.094;2022-08-19T11:34:36;11;11;
37290;PMS5003;23175;-33.706;151.094;2022-08-19T11:37:07;12;9;
37290;PMS5003;23175;-33.706;151.094;2022-08-19T11:39:38;12;8;
37290;PMS5003;23175;-33.706;151.094;2022-08-19T11:42:10;10;10;
37290;PMS5003;23175;-33.706;151.094;2022-08-19T11:44:40;8;8;
37290;PMS5003;23175;-33.706;151.094;2022-08-19T11:47:10;11;9;
37290;PMS5003;23175;-33.706;151.094;2022-08-19T11:49:41;13;12;
37290;PMS5003;23175;-33.706;151.094;2022-08-19T11:52:12;12;9;
37290;PMS5003;23175;-33.706;151.094;2022-08-19T11:54:43;11;9;
37290;PMS5003;23175;-33.706;151.094;2022-08-19T11:57:13;9;7;
37290;PMS5003;23175;-33.706;151.094;2022-08-19T11:59:48;9;8;
37290;PMS5003;23175;-33.706;151.094;2022-08-19T12:02:18;9;8;
37290;PMS5003;23175;-33.706;151.094;2022-08-19T12:04:48;12;11;
37290;PMS5003;23175;-33.706;151.094;2022-08-19T12:07:19;8;8;
37290;PMS5003;23175;-33.706;151.094;2022-08-19T12:09:49;10;8;
37290;PMS5003;23175;-33.706;151.094;2022-08-19T12:12:19;12;10;
37290;PMS5003;23175;-33.706;151.094;2022-08-19T12:14:49;11;8;
37290;PMS5003;23175;-33.706;151.094;2022-08-19T12:17:19;8;7;
37290;PMS5003;23175;-33.706;151.094;2022-08-19T12:19:48;11;8;
37290;PMS5003;23175;-33.706;151.094;2022-08-19T12:22:18;8;7;
37290;PMS5003;23175;-33.706;151.094;2022-08-19T12:24:48;9;9;
37290;PMS5003;23175;-33.706;151.094;2022-08-19T12:27:19;15;10;
37290;PMS5003;23175;-33.706;151.094;2022-08-19T12:29:49;9;9;
37290;PMS5003;23175;-33.706;151.094;2022-08-19T12:32:19;9;9;
37290;PMS5003;23175;-33.706;151.094;2022-08-19T12:34:49;11;10;
37290;PMS5003;23175;-33.706;151.094;2022-08-19T12:37:19;12;12;
37290;PMS5003;23175;-33.706;151.094;2022-08-19T12:39:49;10;9;
37290;PMS5003;23175;-33.706;151.094;2022-08-19T12:42:20;12;12;
37290;PMS5003;23175;-33.706;151.094;2022-08-19T12:44:50;14;14;
37290;PMS5003;23175;-33.706;151.094;2022-08-19T12:47:21;10;8;
37290;PMS5003;23175;-33.706;151.094;2022-08-19T12:49:52;13;11;
37290;PMS5003;23175;-33.706;151.094;2022-08-19T12:52:23;11;10;
37290;PMS5003;23175;-33.706;151.094;2022-08-19T12:54:54;17;14;
37290;PMS5003;23175;-33.706;151.094;2022-08-19T12:57:26;9;9;
37290;PMS5003;23175;-33.706;151.094;2022-08-19T12:59:57;10;9;
37290;PMS5003;23175;-33.706;151.094;2022-08-19T13:02:27;10;9;
37290;PMS5003;23175;-33.706;151.094;2022-08-19T13:04:57;11;8;
37290;PMS5003;23175;-33.706;151.094;2022-08-19T13:07:27;7;7;
37290;PMS5003;23175;-33.706;151.094;2022-08-19T13:09:59;6;6;
37290;PMS5003;23175;-33.706;151.094;2022-08-19T13:12:29;11;8;
37290;PMS5003;23175;-33.706;151.094;2022-08-19T13:14:59;8;8;
37290;PMS5003;23175;-33.706;151.094;2022-08-19T13:17:30;10;10;
37290;PMS5003;23175;-33.706;151.094;2022-08-19T13:20:02;9;9;
37290;PMS5003;23175;-33.706;151.094;2022-08-19T13:22:33;11;8;
37290;PMS5003;23175;-33.706;151.094;2022-08-19T13:25:04;12;11;
37290;PMS5003;23175;-33.706;151.094;2022-08-19T13:27:35;8;8;
37290;PMS5003;23175;-33.706;151.094;2022-08-19T13:30:08;14;9;
37290;PMS5003;23175;-33.706;151.094;2022-08-19T13:32:40;10;8;
37290;PMS5003;23175;-33.706;151.094;2022-08-19T13:35:11;15;10;
37290;PMS5003;23175;-33.706;151.094;2022-08-19T13:37:41;16;9;
37290;PMS5003;23175;-33.706;151.094;2022-08-19T13:40:14;9;9;
37290;PMS5003;23175;-33.706;151.094;2022-08-19T13:42:49;11;9;
37290;PMS5003;23175;-33.706;151.094;2022-08-19T13:45:21;13;8;
37290;PMS5003;23175;-33.706;151.094;2022-08-19T13:47:53;8;8;
37290;PMS5003;23175;-33.706;151.094;2022-08-19T13:50:26;9;9;
37290;PMS5003;23175;-33.706;151.094;2022-08-19T13:52:59;10;8;
37290;PMS5003;23175;-33.706;151.094;2022-08-19T13:55:29;6;6;
37290;PMS5003;23175;-33.706;151.094;2022-08-19T13:58:00;10;9;
37290;PMS5003;23175;-33.706;151.094;2022-08-19T14:00:31;8;6;
37290;PMS5003;23175;-33.706;151.094;2022-08-19T14:03:04;14;9;
37290;PMS5003;23175;-33.706;151.094;2022-08-19T14:05:35;8;7;
37290;PMS5003;23175;-33.706;151.094;2022-08-19T14:08:06;11;9;
37290;PMS5003;23175;-33.706;151.094;2022-08-19T14:10:37;9;9;
37290;PMS5003;23175;-33.706;151.094;2022-08-19T14:13:07;13;9;
37290;PMS5003;23175;-33.706;151.094;2022-08-19T14:15:38;11;9;
37290;PMS5003;23175;-33.706;151.094;2022-08-19T14:18:08;13;12;
37290;PMS5003;23175;-33.706;151.094;2022-08-19T14:20:39;10;9;
37290;PMS5003;23175;-33.706;151.094;2022-08-19T14:23:10;8;8;
37290;PMS5003;23175;-33.706;151.094;2022-08-19T14:25:41;14;8;
37290;PMS5003;23175;-33.706;151.094;2022-08-19T14:28:11;8;7;
37290;PMS5003;23175;-33.706;151.094;2022-08-19T14:30:43;7;7;
37290;PMS5003;23175;-33.706;151.094;2022-08-19T14:33:13;7;7;
37290;PMS5003;23175;-33.706;151.094;2022-08-19T14:35:43;7;7;
37290;PMS5003;23175;-33.706;151.094;2022-08-19T14:38:15;13;10;
37290;PMS5003;23175;-33.706;151.094;2022-08-19T14:40:46;9;6;
37290;PMS5003;23175;-33.706;151.094;2022-08-19T14:43:16;9;8;
37290;PMS5003;23175;-33.706;151.094;2022-08-19T14:45:47;10;6;
37290;PMS5003;23175;-33.706;151.094;2022-08-19T14:48:17;9;7;
37290;PMS5003;23175;-33.706;151.094;2022-08-19T14:50:47;10;9;
37290;PMS5003;23175;-33.706;151.094;2022-08-19T14:53:17;15;9;
37290;PMS5003;23175;-33.706;151.094;2022-08-19T14:55:46;12;10;
37290;PMS5003;23175;-33.706;151.094;2022-08-19T14:58:17;8;8;
37290;PMS5003;23175;-33.706;151.094;2022-08-19T15:00:48;10;8;
37290;PMS5003;23175;-33.706;151.094;2022-08-19T15:03:18;9;7;
37290;PMS5003;23175;-33.706;151.094;2022-08-19T15:05:49;7;7;
37290;PMS5003;23175;-33.706;151.094;2022-08-19T15:08:20;12;8;
37290;PMS5003;23175;-33.706;151.094;2022-08-19T15:10:50;10;7;
37290;PMS5003;23175;-33.706;151.094;2022-08-19T15:13:21;8;6;
37290;PMS5003;23175;-33.706;151.094;2022-08-19T15:15:53;5;5;
37290;PMS5003;23175;-33.706;151.094;2022-08-19T15:18:24;11;8;
37290;PMS5003;23175;-33.706;151.094;2022-08-19T15:20:54;8;6;
37290;PMS5003;23175;-33.706;151.094;2022-08-19T15:23:24;7;6;
37290;PMS5003;23175;-33.706;151.094;2022-08-19T15:25:54;7;7;
37290;PMS5003;23175;-33.706;151.094;2022-08-19T15:28:25;6;5;
37290;PMS5003;23175;-33.706;151.094;2022-08-19T15:30:56;6;6;
37290;PMS5003;23175;-33.706;151.094;2022-08-19T15:33:27;8;6;
37290;PMS5003;23175;-33.706;151.094;2022-08-19T15:35:59;8;6;
37290;PMS5003;23175;-33.706;151.094;2022-08-19T15:38:30;10;8;
37290;PMS5003;23175;-33.706;151.094;2022-08-19T15:41:02;6;6;
37290;PMS5003;23175;-33.706;151.094;2022-08-19T15:43:32;9;6;
37290;PMS5003;23175;-33.706;151.094;2022-08-19T15:46:08;6;6;
37290;PMS5003;23175;-33.706;151.094;2022-08-19T15:48:38;5;5;
37290;PMS5003;23175;-33.706;151.094;2022-08-19T15:51:09;10;5;
37290;PMS5003;23175;-33.706;151.094;2022-08-19T15:53:40;7;6;
37290;PMS5003;23175;-33.706;151.094;2022-08-19T15:56:10;8;8;
37290;PMS5003;23175;-33.706;151.094;2022-08-19T15:58:42;8;6;
37290;PMS5003;23175;-33.706;151.094;2022-08-19T16:01:12;7;7;
37290;PMS5003;23175;-33.706;151.094;2022-08-19T16:03:42;6;6;
37290;PMS5003;23175;-33.706;151.094;2022-08-19T16:06:13;7;7;
37290;PMS5003;23175;-33.706;151.094;2022-08-19T16:08:43;10;9;
37290;PMS5003;23175;-33.706;151.094;2022-08-19T16:11:13;9;7;
37290;PMS5003;23175;-33.706;151.094;2022-08-19T16:13:45;6;6;
37290;PMS5003;23175;-33.706;151.094;2022-08-19T16:16:16;10;6;
37290;PMS5003;23175;-33.706;151.094;2022-08-19T16:18:46;6;6;